Webcam Flughafen St.Gallen-Altenrhein

Live-Bilder und Zeitraffer LSZR / ACH.

 

Live aus Altenrhein
LIVE
LSZR 201150Z VRB03KT CAVOK 23/14 Q1021 NOSIG RMK H
Zeitraffer heute
2018-09-20 00:14:23
LSZR 192150Z AUTO VRB01KT CAVOK 15/13 Q1022
Zeitraffer gestern
2018-09-19 00:14:13
LSZR 182150Z AUTO 31006KT 9999 BKN130 SCT150 //////TCU 19/14 Q1021
Zeitraffer vor 3 Tagen
2018-09-17 00:14:44
LSZR 162150Z AUTO 13004KT 100V160 CAVOK 17/15 Q1022